createdAt,value
2022-11-16T10:25:10.764Z,84.00
2022-11-16T10:26:56.900Z,82.25
2022-11-16T10:28:43.153Z,81.60
2022-11-16T10:30:29.411Z,77.64
2022-11-16T10:32:16.042Z,73.47
2022-11-16T10:34:02.279Z,72.11
2022-11-16T10:35:50.807Z,70.48
2022-11-16T10:37:40.162Z,70.20
2022-11-16T10:39:29.809Z,69.49
2022-11-16T10:41:19.376Z,69.61
2022-11-16T10:43:08.736Z,69.26
2022-11-16T10:44:58.073Z,68.80
2022-11-16T10:46:47.447Z,69.52
2022-11-16T10:48:36.849Z,69.34
2022-11-16T10:50:26.174Z,69.25
2022-11-16T10:52:15.540Z,69.27
2022-11-16T10:54:05.089Z,69.06
2022-11-16T10:55:54.488Z,68.85
2022-11-16T10:57:43.914Z,68.94
2022-11-16T10:59:33.177Z,68.96
2022-11-16T11:01:22.749Z,69.14
2022-11-16T11:03:12.169Z,68.91
2022-11-16T11:05:01.446Z,69.39
2022-11-16T11:06:50.820Z,69.77
2022-11-16T11:08:40.204Z,69.78
2022-11-16T11:10:29.614Z,70.27
2022-11-16T11:12:19.085Z,70.36
2022-11-16T11:14:09.412Z,70.23
2022-11-16T11:15:58.994Z,70.51
2022-11-16T11:17:48.339Z,70.61
2022-11-16T11:19:38.456Z,70.67
2022-11-16T11:21:27.786Z,70.59
2022-11-16T11:23:17.299Z,70.48
2022-11-16T11:25:06.676Z,70.54
2022-11-16T11:26:56.009Z,70.69
2022-11-16T11:28:45.409Z,70.73
2022-11-16T11:30:34.822Z,70.84
2022-11-16T11:32:24.810Z,70.92
2022-11-16T11:34:14.197Z,71.09
2022-11-16T11:36:03.607Z,71.32
2022-11-16T11:37:53.389Z,71.48
2022-11-16T11:39:42.795Z,71.64
2022-11-16T11:41:32.120Z,72.40
2022-11-16T11:43:21.522Z,73.38
2022-11-16T11:45:11.123Z,74.14
2022-11-16T17:55:00.878Z,91.22
2022-11-16T17:56:50.237Z,91.02
2022-11-16T17:58:40.007Z,90.87
2022-11-16T18:00:29.488Z,90.82
2022-11-16T18:02:25.276Z,90.77
2022-11-16T18:04:14.752Z,91.04
2022-11-16T18:06:04.211Z,91.08
2022-11-16T18:07:53.584Z,91.29
2022-11-16T18:09:43.232Z,91.29
2022-11-16T18:11:32.787Z,91.19
2022-11-16T18:13:22.521Z,91.20
2022-11-16T18:15:29.578Z,91.23
2022-11-16T18:17:07.505Z,91.37
2022-11-16T18:18:56.980Z,91.43
2022-11-16T18:20:46.446Z,91.49
2022-11-16T18:22:35.905Z,91.65
2022-11-16T18:24:25.616Z,91.73
2022-11-16T18:26:15.103Z,91.76
2022-11-16T18:28:04.859Z,91.77
2022-11-16T18:29:54.353Z,91.63
2022-11-16T18:31:44.030Z,91.61
2022-11-16T18:33:34.019Z,91.64
2022-11-16T18:35:23.511Z,91.71
2022-11-16T18:37:12.960Z,91.63
2022-11-16T18:39:02.669Z,91.53
2022-11-16T18:40:52.057Z,91.73
2022-11-16T18:42:41.502Z,91.80
2022-11-16T18:44:31.099Z,91.66
2022-11-16T18:46:21.743Z,91.63
2022-11-16T18:48:11.240Z,91.57
2022-11-16T18:50:00.741Z,91.32
2022-11-16T18:51:50.239Z,91.21
2022-11-16T18:53:41.207Z,91.38
2022-11-16T18:55:30.686Z,91.77
2022-11-16T18:57:20.017Z,91.83
2022-11-16T18:59:09.489Z,91.70
2022-11-16T19:00:59.290Z,91.43
2022-11-16T19:02:48.721Z,91.33
2022-11-16T19:04:38.251Z,91.34
2022-11-16T19:06:27.745Z,91.39
2022-11-16T19:08:17.431Z,91.67
2022-11-16T19:10:07.946Z,91.54
2022-11-16T19:11:57.432Z,91.72
2022-11-16T19:13:46.959Z,91.66
2022-11-16T19:15:36.461Z,91.75
2022-11-16T19:17:26.383Z,91.80
2022-11-16T19:19:15.788Z,91.98
2022-11-16T19:21:05.254Z,92.06
2022-11-16T19:22:54.894Z,92.01
2022-11-16T19:24:44.415Z,91.99
2022-11-16T19:26:33.882Z,91.76
2022-11-16T19:28:23.353Z,91.36
2022-11-16T19:30:13.111Z,91.37
2022-11-16T19:32:02.627Z,91.64
2022-11-16T19:33:52.197Z,91.79
2022-11-16T19:35:41.898Z,91.41
2022-11-16T19:37:31.608Z,91.54
2022-11-16T19:39:21.103Z,91.34
2022-11-16T19:41:10.562Z,91.36
2022-11-16T19:43:00.052Z,91.35
2022-11-16T19:44:55.664Z,91.61
2022-11-16T19:46:45.116Z,91.79
2022-11-16T19:48:34.585Z,91.61
2022-11-16T19:50:24.201Z,91.98
2022-11-16T19:52:13.807Z,91.85
2022-11-16T19:54:03.232Z,92.02
2022-11-16T19:55:52.670Z,92.03
2022-11-16T19:57:42.184Z,92.30
2022-11-16T19:59:31.881Z,92.29
2022-11-16T20:01:21.409Z,92.22
2022-11-16T20:03:11.101Z,92.21
2022-11-16T20:05:00.571Z,92.22
2022-11-16T20:06:50.330Z,92.18
2022-11-16T20:08:39.765Z,92.18
2022-11-16T20:10:29.285Z,92.13
2022-11-16T20:12:18.779Z,92.06
2022-11-16T20:14:08.457Z,92.01
2022-11-16T20:15:57.790Z,91.72
2022-11-16T20:17:47.261Z,91.67
2022-11-16T20:19:36.745Z,91.54
2022-11-16T20:21:26.682Z,91.33
2022-11-16T20:23:16.183Z,91.64
2022-11-16T20:25:05.606Z,91.56
2022-11-16T20:26:55.081Z,91.66
2022-11-16T20:28:44.727Z,91.93
2022-11-16T20:30:34.189Z,91.92
2022-11-16T20:32:23.658Z,91.94
2022-11-16T20:34:13.118Z,92.16
2022-11-16T20:36:02.643Z,92.20
2022-11-16T20:37:52.133Z,92.06
2022-11-16T20:39:42.006Z,91.91
2022-11-16T20:41:31.384Z,91.94
2022-11-16T20:43:21.051Z,91.79
2022-11-16T20:45:10.555Z,91.89
2022-11-16T20:47:00.045Z,91.74
2022-11-16T20:48:49.408Z,91.70
2022-11-16T20:50:38.914Z,91.96
2022-11-16T20:52:28.332Z,92.00
2022-11-16T20:54:17.746Z,92.14
2022-11-16T20:56:07.238Z,92.34
2022-11-16T20:57:56.906Z,92.28
2022-11-16T20:59:46.410Z,92.23
2022-11-16T21:01:35.927Z,92.31
2022-11-16T21:03:25.356Z,92.51
2022-11-16T21:05:15.012Z,92.71
2022-11-16T21:07:04.548Z,92.68
2022-11-16T21:08:54.019Z,92.71
2022-11-16T21:10:43.538Z,92.80
2022-11-16T21:12:33.122Z,92.81
2022-11-16T21:14:22.577Z,92.70
2022-11-16T21:16:12.056Z,92.72
2022-11-16T21:18:01.800Z,92.99
2022-11-16T21:20:20.011Z,93.01
2022-11-16T21:21:46.802Z,92.97
2022-11-16T21:23:36.590Z,93.04
2022-11-16T21:25:26.338Z,93.08
2022-11-16T21:27:17.263Z,92.96
2022-11-16T21:29:06.772Z,92.89
2022-11-16T21:30:56.175Z,92.78
2022-11-16T21:32:45.701Z,93.03
2022-11-16T21:34:39.951Z,92.91
2022-11-16T21:36:30.000Z,92.82
2022-11-16T21:38:19.479Z,92.83
2022-11-16T21:40:08.944Z,92.76
2022-11-16T21:41:58.620Z,92.63
2022-11-16T21:43:48.070Z,92.69
2022-11-16T21:45:37.537Z,92.94
2022-11-16T21:47:27.050Z,93.18
2022-11-16T21:49:16.674Z,93.24
2022-11-16T21:51:06.159Z,93.13
2022-11-16T21:52:55.603Z,93.11
2022-11-16T21:54:45.080Z,92.86
2022-11-16T21:56:34.757Z,93.04
2022-11-16T21:58:24.219Z,93.24
2022-11-16T22:00:13.669Z,93.20
2022-11-16T22:02:03.228Z,93.07
2022-11-16T22:03:52.783Z,93.01
2022-11-16T22:05:42.303Z,93.02
2022-11-16T22:07:31.787Z,93.08
2022-11-16T22:09:21.260Z,93.23
2022-11-16T22:11:10.935Z,93.36
2022-11-16T22:13:00.427Z,93.39
2022-11-16T22:14:50.182Z,93.35
2022-11-16T22:16:39.663Z,93.41
2022-11-16T22:18:29.463Z,93.37
2022-11-16T22:20:18.854Z,93.41
2022-11-16T22:22:08.321Z,93.52
2022-11-16T22:23:57.793Z,93.67
2022-11-16T22:25:47.916Z,93.69
2022-11-16T22:27:58.431Z,93.64
2022-11-16T22:29:32.722Z,93.59
2022-11-16T22:31:22.216Z,93.58
2022-11-16T22:33:11.732Z,93.80
2022-11-16T22:35:01.317Z,94.09
2022-11-16T22:36:50.727Z,94.16
2022-11-16T22:38:40.146Z,94.15
2022-11-16T22:40:29.802Z,94.18
2022-11-16T22:42:19.655Z,94.19
2022-11-16T22:44:09.179Z,94.05
2022-11-16T22:45:57.064Z,93.98
2022-11-16T22:47:45.102Z,93.86
2022-11-16T22:49:32.277Z,93.90
2022-11-16T22:51:20.582Z,94.01
2022-11-16T22:53:06.799Z,93.96
2022-11-16T22:54:53.084Z,93.81
2022-11-16T22:56:39.589Z,93.85
2022-11-16T22:58:25.846Z,94.32
2022-11-16T23:00:12.114Z,94.15
2022-11-16T23:01:58.596Z,93.79
2022-11-16T23:03:44.924Z,94.26
2022-11-16T23:05:31.182Z,94.30
2022-11-16T23:07:17.434Z,94.55
2022-11-16T23:09:03.787Z,94.74
2022-11-16T23:10:50.006Z,94.81
2022-11-16T23:12:36.218Z,94.85
2022-11-16T23:14:22.736Z,95.01
2022-11-16T23:16:09.185Z,95.05
2022-11-16T23:17:55.434Z,95.22
2022-11-16T23:19:41.676Z,95.27
2022-11-16T23:21:27.860Z,95.21
2022-11-16T23:23:14.403Z,95.28
2022-11-16T23:25:00.449Z,95.45
2022-11-16T23:26:46.684Z,95.43
2022-11-16T23:28:32.916Z,95.40
2022-11-16T23:30:19.410Z,95.27
2022-11-16T23:32:05.645Z,95.20
2022-11-16T23:33:51.787Z,95.14
2022-11-16T23:35:38.014Z,95.06
2022-11-16T23:37:24.456Z,95.25
2022-11-16T23:39:10.792Z,95.25
2022-11-16T23:40:56.947Z,95.13
2022-11-16T23:42:43.115Z,95.14
2022-11-16T23:44:29.689Z,95.13
2022-11-16T23:46:15.951Z,94.90
2022-11-16T23:48:02.152Z,94.78
